createdAt,value
2022-09-10T00:00:48.595Z,0.00
2022-09-10T00:01:48.692Z,0.00
2022-09-10T00:02:48.579Z,0.00
2022-09-10T00:03:48.521Z,0.00
2022-09-10T00:04:48.526Z,0.00
2022-09-10T00:05:48.531Z,0.00
2022-09-10T00:06:48.501Z,0.00
2022-09-10T00:07:48.519Z,0.00
2022-09-10T00:08:48.487Z,0.00
2022-09-10T00:09:48.460Z,0.00
2022-09-10T00:10:48.487Z,0.00
2022-09-10T00:11:48.477Z,0.00
2022-09-10T00:12:48.429Z,0.00
2022-09-10T00:13:48.432Z,0.00
2022-09-10T00:14:48.410Z,0.00
2022-09-10T00:15:48.400Z,0.00
2022-09-10T00:16:48.400Z,0.00
2022-09-10T00:17:48.377Z,0.00
2022-09-10T00:18:48.359Z,0.00
2022-09-10T00:19:48.419Z,0.00
2022-09-10T00:20:48.361Z,0.00
2022-09-10T00:21:48.362Z,0.00
2022-09-10T00:22:48.338Z,0.00
2022-09-10T00:23:48.324Z,0.00
2022-09-10T00:24:48.296Z,0.00
2022-09-10T00:25:48.293Z,0.00
2022-09-10T00:26:48.272Z,0.00
2022-09-10T00:27:48.315Z,0.00
2022-09-10T00:28:48.281Z,0.00
2022-09-10T00:29:48.282Z,0.00
2022-09-10T00:30:48.233Z,0.00
2022-09-10T00:31:48.248Z,0.00
2022-09-10T00:32:48.222Z,0.00
2022-09-10T00:33:48.226Z,0.00
2022-09-10T00:34:48.198Z,0.00
2022-09-10T00:35:48.180Z,0.00
2022-09-10T00:36:48.202Z,0.00
2022-09-10T00:37:48.188Z,0.00
2022-09-10T00:38:48.146Z,0.00
2022-09-10T00:39:48.161Z,0.00
2022-09-10T00:40:48.174Z,0.00
2022-09-10T00:41:48.107Z,0.00
2022-09-10T00:42:48.117Z,0.00
2022-09-10T00:43:48.087Z,0.00
2022-09-10T00:44:48.096Z,0.00
2022-09-10T00:45:48.124Z,0.00
2022-09-10T00:46:48.115Z,0.00
2022-09-10T00:47:48.048Z,0.00
2022-09-10T00:48:48.040Z,0.00
2022-09-10T00:49:48.070Z,0.00
2022-09-10T00:50:48.049Z,0.00
2022-09-10T00:51:47.999Z,0.00
2022-09-10T00:52:47.994Z,0.00
2022-09-10T00:53:47.988Z,0.00
2022-09-10T00:54:47.974Z,0.00
2022-09-10T00:55:47.961Z,0.00
2022-09-10T00:56:47.990Z,0.00
2022-09-10T00:57:47.969Z,0.00
2022-09-10T00:58:47.930Z,0.00
2022-09-10T00:59:47.914Z,0.00
2022-09-10T01:00:47.914Z,0.00
2022-09-10T01:01:47.895Z,0.00
2022-09-10T01:02:47.913Z,0.00
2022-09-10T01:03:47.874Z,0.00
2022-09-10T01:04:47.856Z,0.00
2022-09-10T01:05:47.847Z,0.00
2022-09-10T01:06:47.835Z,0.00
2022-09-10T01:07:47.824Z,0.00
2022-09-10T01:08:47.853Z,0.00
2022-09-10T01:09:47.842Z,0.00
2022-09-10T01:10:47.805Z,0.00
2022-09-10T01:11:47.780Z,0.00
2022-09-10T01:12:47.770Z,0.00
2022-09-10T01:13:47.787Z,0.00
2022-09-10T01:14:47.796Z,0.00
2022-09-10T01:15:47.729Z,0.00
2022-09-10T01:16:47.737Z,0.00
2022-09-10T01:17:47.700Z,0.00
2022-09-10T01:18:47.703Z,0.00
2022-09-10T01:19:47.689Z,0.00
2022-09-10T01:20:47.728Z,0.00
2022-09-10T01:21:47.710Z,0.00
2022-09-10T01:22:47.667Z,0.00
2022-09-10T01:23:47.640Z,0.00
2022-09-10T01:24:47.641Z,0.00
2022-09-10T01:25:47.623Z,0.00
2022-09-10T01:26:47.626Z,0.00
2022-09-10T01:27:47.618Z,0.00
2022-09-10T01:28:47.591Z,0.00
2022-09-10T01:29:47.571Z,0.00
2022-09-10T01:30:47.606Z,0.00
2022-09-10T01:31:47.628Z,0.00
2022-09-10T01:32:47.551Z,0.00
2022-09-10T01:33:47.527Z,0.00
2022-09-10T01:34:47.524Z,0.00
2022-09-10T01:35:47.550Z,0.00
2022-09-10T01:36:47.529Z,0.00
2022-09-10T01:37:47.493Z,0.00
2022-09-10T01:38:47.503Z,0.00
2022-09-10T01:39:47.589Z,0.00
2022-09-10T01:40:47.474Z,0.00
2022-09-10T01:41:47.429Z,0.00
2022-09-10T01:42:47.459Z,0.00
2022-09-10T01:43:47.443Z,0.00
2022-09-10T01:44:47.418Z,0.00
2022-09-10T01:45:47.435Z,0.00
2022-09-10T01:46:47.402Z,0.00
2022-09-10T01:47:47.401Z,0.00
2022-09-10T01:48:47.376Z,0.00
2022-09-10T01:49:47.350Z,0.00
2022-09-10T01:50:47.403Z,0.00
2022-09-10T01:51:47.370Z,0.00
2022-09-10T01:52:47.329Z,0.00
2022-09-10T01:53:47.327Z,0.00
2022-09-10T01:54:47.350Z,0.00
2022-09-10T01:55:47.301Z,0.00
2022-09-10T01:56:47.288Z,0.00
2022-09-10T01:57:47.271Z,0.00
2022-09-10T01:58:47.270Z,0.00
2022-09-10T01:59:47.261Z,0.00
2022-09-10T02:00:47.342Z,0.00
2022-09-10T02:01:47.246Z,0.00
2022-09-10T02:02:47.211Z,0.00
2022-09-10T02:03:47.205Z,0.00
2022-09-10T02:04:47.207Z,0.00
2022-09-10T02:05:47.212Z,0.00
2022-09-10T02:06:47.227Z,0.00
2022-09-10T02:07:47.158Z,0.00
2022-09-10T02:08:47.204Z,0.00
2022-09-10T02:09:47.132Z,0.00
2022-09-10T02:10:47.143Z,0.00
2022-09-10T02:11:47.162Z,0.00
2022-09-10T02:12:47.142Z,0.00
2022-09-10T02:13:47.102Z,0.00
2022-09-10T02:14:47.085Z,0.00
2022-09-10T02:15:47.085Z,0.00
2022-09-10T02:16:47.060Z,0.00
2022-09-10T02:17:47.085Z,0.00
2022-09-10T02:18:47.048Z,0.00
2022-09-10T02:19:47.026Z,0.00
2022-09-10T02:20:47.020Z,0.00
2022-09-10T02:21:47.017Z,0.00
2022-09-10T02:22:46.996Z,0.00
2022-09-10T02:23:47.022Z,0.00
2022-09-10T02:24:46.987Z,0.00
2022-09-10T02:25:46.960Z,0.00
2022-09-10T02:26:46.959Z,0.00
2022-09-10T02:27:46.942Z,0.00
2022-09-10T02:28:46.932Z,0.00
2022-09-10T02:29:46.931Z,0.00
2022-09-10T02:30:47.855Z,0.00
2022-09-10T02:31:46.913Z,0.00
2022-09-10T02:32:46.882Z,0.00
2022-09-10T02:33:46.891Z,0.00
2022-09-10T02:34:46.874Z,0.00
2022-09-10T02:35:46.846Z,0.00
2022-09-10T02:36:46.864Z,0.00
2022-09-10T02:37:46.846Z,0.00
2022-09-10T02:38:46.835Z,0.00
2022-09-10T02:39:46.856Z,0.00
2022-09-10T02:40:46.842Z,0.00
2022-09-10T02:41:46.784Z,0.00
2022-09-10T02:42:46.838Z,0.00
2022-09-10T02:43:46.775Z,0.00
2022-09-10T02:44:46.745Z,0.00
2022-09-10T02:45:46.787Z,0.00
2022-09-10T02:46:46.780Z,0.00
2022-09-10T02:47:46.712Z,0.00
2022-09-10T02:48:46.696Z,0.00
2022-09-10T02:49:46.694Z,0.00
2022-09-10T02:50:46.687Z,0.00
2022-09-10T02:51:46.675Z,0.00
2022-09-10T02:52:46.691Z,0.00
2022-09-10T02:53:46.668Z,0.00
2022-09-10T02:54:46.640Z,0.00
2022-09-10T02:55:46.633Z,0.00
2022-09-10T02:56:46.648Z,0.00
2022-09-10T02:57:46.608Z,0.00
2022-09-10T02:58:46.592Z,0.00
2022-09-10T02:59:46.618Z,0.00
2022-09-10T03:00:46.626Z,0.00
2022-09-10T03:01:46.605Z,0.00
2022-09-10T03:02:46.562Z,0.00
2022-09-10T03:03:46.568Z,0.00
2022-09-10T03:04:46.571Z,0.00
2022-09-10T03:05:46.525Z,0.00
2022-09-10T03:06:46.521Z,0.00
2022-09-10T03:07:46.502Z,0.00
2022-09-10T03:08:46.480Z,0.00
2022-09-10T03:09:46.472Z,0.00
2022-09-10T03:10:46.477Z,0.00
2022-09-10T03:11:46.460Z,0.00
2022-09-10T03:12:46.465Z,0.00
2022-09-10T03:13:46.422Z,0.00
2022-09-10T03:14:46.435Z,0.00
2022-09-10T03:15:46.402Z,0.00
2022-09-10T03:16:46.393Z,0.00
2022-09-10T03:17:46.385Z,0.00
2022-09-10T03:18:46.393Z,0.00
2022-09-10T03:19:46.402Z,0.00
2022-09-10T03:20:46.344Z,0.00
2022-09-10T03:21:46.356Z,0.00
2022-09-10T03:22:46.335Z,0.00
2022-09-10T03:23:46.355Z,0.00
2022-09-10T03:24:46.305Z,0.00
2022-09-10T03:25:49.599Z,0.00
2022-09-10T03:26:46.290Z,0.00
2022-09-10T03:27:46.277Z,0.00
2022-09-10T03:28:46.286Z,0.00
2022-09-10T03:29:46.266Z,0.00
2022-09-10T03:30:46.238Z,0.00
2022-09-10T03:31:46.294Z,0.00
2022-09-10T03:32:46.256Z,0.00
2022-09-10T03:33:46.240Z,0.00
2022-09-10T03:34:46.213Z,0.00
2022-09-10T03:35:46.190Z,0.00
2022-09-10T03:36:46.199Z,0.00
2022-09-10T03:37:46.159Z,0.00
2022-09-10T03:38:46.164Z,0.00
2022-09-10T03:39:46.180Z,0.00
2022-09-10T03:40:46.130Z,0.00
2022-09-10T03:41:46.111Z,0.00
2022-09-10T03:42:46.110Z,0.00
2022-09-10T03:43:46.126Z,0.00
2022-09-10T03:44:46.079Z,0.00
2022-09-10T03:45:46.139Z,0.00
2022-09-10T03:46:46.075Z,0.00
2022-09-10T03:47:46.045Z,0.00
2022-09-10T03:48:46.032Z,0.00
2022-09-10T03:49:46.025Z,0.00
2022-09-10T03:50:46.044Z,0.00
2022-09-10T03:51:46.006Z,0.00
2022-09-10T03:52:45.988Z,0.00
2022-09-10T03:53:45.984Z,0.00
2022-09-10T03:54:45.972Z,0.00
2022-09-10T03:55:46.001Z,0.00
2022-09-10T03:56:45.943Z,0.00
2022-09-10T03:57:45.933Z,0.00
2022-09-10T03:58:45.926Z,0.00
2022-09-10T03:59:45.969Z,0.00
2022-09-10T04:00:45.974Z,0.00
2022-09-10T04:01:45.922Z,0.00
2022-09-10T04:02:45.868Z,0.00
2022-09-10T04:03:45.881Z,0.00
2022-09-10T04:04:45.989Z,0.00
2022-09-10T04:05:45.851Z,0.00
2022-09-10T04:06:45.842Z,0.00
2022-09-10T04:07:45.842Z,0.00
2022-09-10T04:08:45.853Z,0.00
2022-09-10T04:09:45.800Z,0.00
2022-09-10T04:10:45.811Z,0.00
2022-09-10T04:11:45.780Z,0.00
2022-09-10T04:12:45.791Z,0.00
2022-09-10T04:13:45.790Z,0.00
2022-09-10T04:14:45.750Z,0.00
2022-09-10T04:15:45.823Z,0.00
2022-09-10T04:16:45.770Z,0.00
2022-09-10T04:17:45.764Z,0.00
2022-09-10T04:18:45.701Z,0.00
2022-09-10T04:19:45.722Z,0.00
2022-09-10T04:20:45.752Z,0.00
2022-09-10T04:21:45.853Z,0.00
2022-09-10T04:22:45.671Z,0.00
2022-09-10T04:23:45.656Z,0.00
2022-09-10T04:24:45.647Z,0.00
2022-09-10T04:25:45.643Z,0.00
2022-09-10T04:26:45.616Z,0.00
2022-09-10T04:27:45.599Z,0.00
2022-09-10T04:28:45.605Z,0.00
2022-09-10T04:29:45.593Z,0.00
2022-09-10T04:30:45.602Z,0.00
2022-09-10T04:31:45.634Z,0.00
2022-09-10T04:32:45.547Z,0.00
2022-09-10T04:33:45.553Z,0.00
2022-09-10T04:34:45.525Z,0.00
2022-09-10T04:35:45.518Z,0.00
2022-09-10T04:36:45.576Z,0.00
2022-09-10T04:37:45.490Z,0.00
2022-09-10T04:38:45.488Z,0.00
2022-09-10T04:39:45.533Z,0.00
2022-09-10T04:40:45.482Z,0.00
2022-09-10T04:41:46.082Z,0.00
2022-09-10T04:42:45.431Z,0.00
2022-09-10T04:43:45.466Z,0.00
2022-09-10T04:44:46.390Z,0.00
2022-09-10T04:45:45.466Z,0.00
2022-09-10T04:46:45.405Z,0.00
2022-09-10T04:47:45.432Z,0.00
2022-09-10T04:48:45.392Z,4.00
2022-09-10T04:49:45.369Z,4.00
2022-09-10T04:51:05.525Z,4.00
2022-09-10T04:51:46.502Z,0.00
2022-09-10T04:52:45.357Z,0.00
2022-09-10T04:53:45.337Z,0.00
2022-09-10T04:54:45.304Z,0.00
2022-09-10T04:55:45.315Z,4.00
2022-09-10T04:56:45.285Z,4.00
2022-09-10T04:57:45.283Z,8.00
2022-09-10T04:58:45.780Z,12.00
2022-09-10T04:59:45.253Z,8.00
2022-09-10T05:00:45.304Z,12.00
2022-09-10T05:01:45.244Z,16.00
2022-09-10T05:02:45.204Z,16.00
2022-09-10T05:03:45.202Z,24.00
2022-09-10T05:04:45.212Z,20.00
2022-09-10T05:05:45.207Z,32.00
2022-09-10T05:06:45.254Z,40.00
2022-09-10T05:07:45.190Z,44.00
2022-09-10T05:08:45.190Z,48.00
2022-09-10T05:09:45.166Z,44.00
2022-09-10T05:10:45.161Z,48.00
2022-09-10T05:11:45.173Z,52.00
2022-09-10T05:12:45.143Z,64.00
2022-09-10T05:13:45.133Z,72.00
2022-09-10T05:14:45.079Z,68.00
2022-09-10T05:15:45.077Z,72.00
2022-09-10T05:16:45.215Z,76.00
2022-09-10T05:17:45.162Z,72.00
2022-09-10T05:18:45.117Z,76.00
2022-09-10T05:19:45.049Z,76.00
2022-09-10T05:20:45.040Z,76.00
2022-09-10T05:21:45.030Z,72.00
2022-09-10T05:22:44.997Z,72.00
2022-09-10T05:23:45.016Z,72.00
2022-09-10T05:24:44.979Z,68.00
2022-09-10T05:25:44.990Z,68.00
2022-09-10T05:26:44.954Z,68.00
2022-09-10T05:27:44.959Z,56.00
2022-09-10T05:28:44.943Z,60.00
2022-09-10T05:29:44.956Z,52.00
2022-09-10T05:30:51.237Z,60.00
2022-09-10T05:31:45.975Z,60.00
2022-09-10T05:32:44.917Z,64.00
2022-09-10T05:33:45.824Z,68.00
2022-09-10T05:34:45.009Z,64.00
2022-09-10T05:35:44.866Z,68.00
2022-09-10T05:36:44.864Z,72.00
2022-09-10T05:37:44.857Z,68.00
2022-09-10T05:38:45.145Z,64.00
2022-09-10T05:39:44.842Z,60.00
2022-09-10T05:40:44.796Z,52.00
2022-09-10T05:41:44.788Z,60.00
2022-09-10T05:42:44.791Z,80.00
2022-09-10T05:43:44.808Z,88.00
2022-09-10T05:44:44.757Z,88.00
2022-09-10T05:45:44.766Z,96.00
2022-09-10T05:46:45.038Z,88.00
2022-09-10T05:47:44.718Z,84.00
2022-09-10T05:48:44.880Z,120.00
2022-09-10T05:49:44.751Z,152.00
2022-09-10T05:50:46.168Z,164.00
2022-09-10T05:51:44.684Z,188.00
2022-09-10T05:52:44.660Z,220.00
2022-09-10T05:53:44.669Z,228.00
2022-09-10T05:54:44.659Z,240.00
2022-09-10T05:55:44.681Z,220.00
2022-09-10T05:56:44.620Z,200.00
2022-09-10T05:57:44.619Z,204.00
2022-09-10T05:58:44.594Z,236.00
2022-09-10T05:59:45.538Z,228.00
2022-09-10T06:00:44.634Z,204.00
2022-09-10T06:01:44.694Z,228.00
2022-09-10T06:02:44.692Z,220.00
2022-09-10T06:03:44.596Z,236.00
2022-09-10T06:04:44.534Z,280.00
2022-09-10T06:05:44.525Z,296.00
2022-09-10T06:06:44.544Z,304.00
2022-09-10T06:07:44.498Z,376.00
2022-09-10T06:08:44.525Z,396.00
2022-09-10T06:09:45.955Z,372.00
2022-09-10T06:10:45.289Z,336.00
2022-09-10T06:11:44.624Z,360.00
2022-09-10T06:12:45.310Z,392.00
2022-09-10T06:13:45.918Z,440.00
2022-09-10T06:14:45.907Z,504.00
2022-09-10T06:15:44.424Z,608.00
2022-09-10T06:16:44.691Z,644.00
2022-09-10T06:17:44.419Z,708.00
2022-09-10T06:18:44.424Z,704.00
2022-09-10T06:19:44.390Z,752.00
2022-09-10T06:20:44.370Z,816.00
2022-09-10T06:21:44.384Z,972.00
2022-09-10T06:22:44.344Z,1128.00
2022-09-10T06:23:44.349Z,1164.00
2022-09-10T06:24:44.401Z,1344.00
2022-09-10T06:25:44.336Z,1320.00
2022-09-10T06:26:44.298Z,1224.00
2022-09-10T06:27:44.326Z,1132.00
2022-09-10T06:28:44.360Z,996.00
2022-09-10T06:29:45.713Z,944.00
2022-09-10T06:30:45.084Z,856.00
2022-09-10T06:31:44.240Z,776.00
2022-09-10T06:32:45.680Z,736.00
2022-09-10T06:33:44.405Z,704.00
2022-09-10T06:34:45.049Z,672.00
2022-09-10T06:35:44.456Z,660.00
2022-09-10T06:36:45.652Z,652.00
2022-09-10T06:37:45.646Z,648.00
2022-09-10T06:38:45.627Z,652.00
2022-09-10T06:39:45.014Z,668.00
2022-09-10T06:40:45.595Z,672.00
2022-09-10T06:41:49.432Z,656.00
2022-09-10T06:42:45.580Z,608.00
2022-09-10T06:43:45.583Z,556.00
2022-09-10T06:44:45.577Z,516.00
2022-09-10T06:45:44.920Z,564.00
2022-09-10T06:47:30.476Z,692.00
2022-09-10T06:48:34.695Z,856.00
2022-09-10T06:48:48.143Z,1000.00
2022-09-10T06:49:44.414Z,1148.00
2022-09-10T06:50:44.893Z,1212.00
2022-09-10T06:51:45.508Z,1160.00
2022-09-10T06:52:45.469Z,1108.00
2022-09-10T06:53:44.959Z,1056.00
2022-09-10T06:54:45.437Z,1032.00
2022-09-10T06:55:44.009Z,1036.00
2022-09-10T06:56:44.173Z,1060.00
2022-09-10T06:57:44.934Z,1116.00
2022-09-10T06:58:44.106Z,1188.00
2022-09-10T06:59:44.730Z,1300.00
2022-09-10T07:00:43.942Z,1336.00
2022-09-10T07:01:45.535Z,1348.00
2022-09-10T07:02:44.024Z,1380.00
2022-09-10T07:03:45.347Z,1404.00
2022-09-10T07:04:43.890Z,1408.00
2022-09-10T07:05:44.536Z,1412.00
2022-09-10T07:06:45.097Z,1496.00
2022-09-10T07:07:45.187Z,1584.00
2022-09-10T07:08:45.799Z,1524.00
2022-09-10T07:09:45.594Z,1556.00
2022-09-10T07:10:45.342Z,1660.00
2022-09-10T07:11:44.861Z,1900.00
2022-09-10T07:12:44.075Z,1920.00
2022-09-10T07:13:44.303Z,1896.00
2022-09-10T07:14:44.315Z,1868.00
2022-09-10T07:15:47.452Z,1772.00
2022-09-10T07:16:44.759Z,1648.00
2022-09-10T07:17:44.520Z,1528.00
2022-09-10T07:18:44.049Z,1400.00
2022-09-10T07:19:45.026Z,1268.00
2022-09-10T07:20:44.953Z,1200.00
2022-09-10T07:21:44.180Z,1208.00
2022-09-10T07:22:45.155Z,1176.00
2022-09-10T07:23:44.692Z,1112.00
2022-09-10T07:24:44.493Z,1252.00
2022-09-10T07:25:44.593Z,1272.00
2022-09-10T07:26:43.712Z,1140.00
2022-09-10T07:27:43.668Z,1164.00
2022-09-10T07:28:45.071Z,1412.00
2022-09-10T07:29:45.125Z,1508.00
2022-09-10T07:30:44.643Z,1608.00
2022-09-10T07:31:45.793Z,1636.00
2022-09-10T07:32:45.020Z,1636.00
2022-09-10T07:33:45.000Z,1752.00
2022-09-10T07:34:43.762Z,1832.00
2022-09-10T07:35:43.550Z,1716.00
2022-09-10T07:36:44.468Z,1856.00
2022-09-10T07:37:43.690Z,1800.00
2022-09-10T07:38:45.004Z,1804.00
2022-09-10T07:39:44.525Z,1452.00
2022-09-10T07:40:44.283Z,1004.00
2022-09-10T07:41:44.490Z,1160.00
2022-09-10T07:42:44.835Z,1372.00
2022-09-10T07:43:44.914Z,1324.00
2022-09-10T07:44:43.637Z,992.00
2022-09-10T07:45:43.767Z,1000.00
2022-09-10T07:46:44.871Z,976.00
2022-09-10T07:47:44.346Z,944.00
2022-09-10T07:48:44.169Z,900.00
2022-09-10T07:49:44.842Z,968.00
2022-09-10T07:50:43.642Z,996.00
2022-09-10T07:51:43.729Z,992.00
2022-09-10T07:52:43.784Z,936.00
2022-09-10T07:53:50.550Z,908.00
2022-09-10T07:54:45.131Z,932.00
2022-09-10T07:55:43.313Z,944.00
2022-09-10T07:56:43.354Z,1012.00
2022-09-10T07:57:43.327Z,960.00
2022-09-10T07:58:43.274Z,956.00
2022-09-10T07:59:43.366Z,940.00
2022-09-10T08:00:44.088Z,1036.00
2022-09-10T08:01:43.327Z,1300.00
2022-09-10T08:02:43.245Z,1312.00
2022-09-10T08:03:43.320Z,940.00
2022-09-10T08:04:43.226Z,912.00
2022-09-10T08:05:43.365Z,1100.00
2022-09-10T08:06:44.185Z,1420.00
2022-09-10T08:07:43.230Z,1724.00
2022-09-10T08:08:43.262Z,1796.00
2022-09-10T08:09:43.144Z,2324.00
2022-09-10T08:10:43.136Z,2660.00
2022-09-10T08:11:43.199Z,2612.00
2022-09-10T08:12:43.123Z,2492.00
2022-09-10T08:13:43.096Z,2388.00
2022-09-10T08:14:43.089Z,1992.00
2022-09-10T08:15:43.268Z,2272.00
2022-09-10T08:16:44.546Z,2432.00
2022-09-10T08:17:43.171Z,2460.00
2022-09-10T08:18:43.049Z,2468.00
2022-09-10T08:19:43.096Z,2512.00
2022-09-10T08:20:43.032Z,2592.00
2022-09-10T08:21:43.008Z,2584.00
2022-09-10T08:22:43.012Z,2884.00
2022-09-10T08:23:42.995Z,2792.00
2022-09-10T08:24:42.989Z,2688.00
2022-09-10T08:25:42.999Z,2700.00
2022-09-10T08:26:42.953Z,2844.00
2022-09-10T08:27:42.956Z,2312.00
2022-09-10T08:28:42.957Z,2344.00
2022-09-10T08:29:42.912Z,1916.00
2022-09-10T08:30:43.544Z,2100.00
2022-09-10T08:31:42.973Z,2424.00
2022-09-10T08:32:42.904Z,2616.00
2022-09-10T08:33:42.883Z,2416.00
2022-09-10T08:34:42.870Z,2484.00
2022-09-10T08:35:42.867Z,2844.00
2022-09-10T08:36:42.849Z,3132.00
2022-09-10T08:37:42.867Z,3356.00
2022-09-10T08:38:42.839Z,3296.00
2022-09-10T08:39:42.923Z,2940.00
2022-09-10T08:40:42.823Z,2796.00
2022-09-10T08:41:42.788Z,3232.00
2022-09-10T08:42:42.768Z,4044.00
2022-09-10T08:43:42.769Z,3384.00
2022-09-10T08:44:42.820Z,2116.00
2022-09-10T08:45:42.799Z,2336.00
2022-09-10T08:46:42.773Z,2804.00
2022-09-10T08:47:42.903Z,2824.00
2022-09-10T08:48:42.727Z,2332.00
2022-09-10T08:49:42.719Z,2224.00
2022-09-10T08:50:42.698Z,2164.00
2022-09-10T08:51:42.688Z,2096.00
2022-09-10T08:52:42.727Z,1708.00
2022-09-10T08:53:42.656Z,1876.00
2022-09-10T08:54:42.671Z,2380.00
2022-09-10T08:55:45.050Z,2500.00
2022-09-10T08:56:43.881Z,2464.00
2022-09-10T08:57:42.808Z,2364.00
2022-09-10T08:58:42.634Z,2420.00
2022-09-10T08:59:42.602Z,2276.00
2022-09-10T09:00:42.579Z,2048.00
2022-09-10T09:01:42.700Z,1608.00
2022-09-10T09:02:49.387Z,1672.00
2022-09-10T09:03:43.571Z,1476.00
2022-09-10T09:04:42.615Z,976.00
2022-09-10T09:05:44.587Z,1108.00
2022-09-10T09:06:42.506Z,1236.00
2022-09-10T09:07:42.577Z,1128.00
2022-09-10T09:08:42.511Z,1116.00
2022-09-10T09:09:42.486Z,1116.00
2022-09-10T09:10:42.485Z,1084.00
2022-09-10T09:11:42.455Z,952.00
2022-09-10T09:12:42.463Z,776.00
2022-09-10T09:13:42.453Z,668.00
2022-09-10T09:14:42.428Z,544.00
2022-09-10T09:15:42.444Z,604.00
2022-09-10T09:16:43.362Z,448.00
2022-09-10T09:17:42.432Z,344.00
2022-09-10T09:18:42.505Z,296.00
2022-09-10T09:19:42.387Z,472.00
2022-09-10T09:20:42.436Z,356.00
2022-09-10T09:21:43.326Z,372.00
2022-09-10T09:22:42.359Z,392.00
2022-09-10T09:24:02.827Z,368.00
2022-09-10T09:24:44.322Z,384.00
2022-09-10T09:25:42.315Z,392.00
2022-09-10T09:26:42.322Z,372.00
2022-09-10T09:27:42.291Z,348.00
2022-09-10T09:28:42.272Z,324.00
2022-09-10T09:29:42.294Z,332.00
2022-09-10T09:30:42.257Z,412.00
2022-09-10T09:31:42.251Z,360.00
2022-09-10T09:32:42.243Z,584.00
2022-09-10T09:33:42.215Z,772.00
2022-09-10T09:34:42.241Z,988.00
2022-09-10T09:35:42.224Z,980.00
2022-09-10T09:36:42.223Z,616.00
2022-09-10T09:37:43.171Z,620.00
2022-09-10T09:38:42.208Z,600.00
2022-09-10T09:39:42.257Z,524.00
2022-09-10T09:40:42.188Z,532.00
2022-09-10T09:41:42.137Z,492.00
2022-09-10T09:42:42.121Z,572.00
2022-09-10T09:43:42.151Z,716.00
2022-09-10T09:44:42.110Z,584.00
2022-09-10T09:45:42.131Z,568.00
2022-09-10T09:46:42.087Z,596.00
2022-09-10T09:47:42.060Z,656.00
2022-09-10T09:48:42.083Z,788.00
2022-09-10T09:49:42.040Z,908.00
2022-09-10T09:50:42.052Z,1056.00
2022-09-10T09:51:42.052Z,892.00
2022-09-10T09:52:42.029Z,864.00
2022-09-10T09:53:46.308Z,676.00
2022-09-10T09:55:12.544Z,720.00
2022-09-10T09:55:42.963Z,672.00
2022-09-10T09:56:42.000Z,864.00
2022-09-10T09:57:43.210Z,876.00
2022-09-10T09:58:41.960Z,868.00
2022-09-10T09:59:42.419Z,780.00
2022-09-10T10:00:41.900Z,732.00
2022-09-10T10:01:41.996Z,600.00
2022-09-10T10:02:42.728Z,556.00
2022-09-10T10:03:41.883Z,476.00
2022-09-10T10:04:42.393Z,456.00
2022-09-10T10:05:43.451Z,368.00
2022-09-10T10:06:41.943Z,456.00
2022-09-10T10:07:41.857Z,504.00
2022-09-10T10:08:43.316Z,460.00
2022-09-10T10:09:41.836Z,388.00
2022-09-10T10:10:41.842Z,608.00
2022-09-10T10:11:41.790Z,888.00
2022-09-10T10:12:41.797Z,780.00
2022-09-10T10:13:41.772Z,736.00
2022-09-10T10:14:41.755Z,656.00
2022-09-10T10:15:41.793Z,600.00
2022-09-10T10:16:42.002Z,544.00
2022-09-10T10:17:41.930Z,508.00
2022-09-10T10:18:41.771Z,400.00
2022-09-10T10:19:41.765Z,280.00
2022-09-10T10:20:41.729Z,348.00
2022-09-10T10:21:41.807Z,460.00
2022-09-10T10:22:41.719Z,716.00
2022-09-10T10:23:41.658Z,1220.00
2022-09-10T10:24:43.162Z,1056.00
2022-09-10T10:25:41.628Z,940.00
2022-09-10T10:26:41.648Z,1732.00
2022-09-10T10:27:43.070Z,1076.00
2022-09-10T10:28:41.630Z,1292.00
2022-09-10T10:29:41.635Z,1680.00
2022-09-10T10:30:41.692Z,2552.00
2022-09-10T10:31:42.536Z,2020.00
2022-09-10T10:32:41.581Z,1200.00
2022-09-10T10:33:48.219Z,1296.00
2022-09-10T10:34:41.585Z,1636.00
2022-09-10T10:35:41.582Z,1796.00
2022-09-10T10:36:41.616Z,2404.00
2022-09-10T10:37:41.515Z,2868.00
2022-09-10T10:38:42.450Z,2688.00
2022-09-10T10:39:41.498Z,2588.00
2022-09-10T10:40:42.328Z,2756.00
2022-09-10T10:41:41.457Z,2748.00
2022-09-10T10:42:41.527Z,3316.00
2022-09-10T10:43:41.599Z,3752.00
2022-09-10T10:44:41.872Z,3396.00
2022-09-10T10:45:42.366Z,3696.00
2022-09-10T10:46:42.993Z,3816.00
2022-09-10T10:47:42.849Z,5112.00
2022-09-10T10:48:42.181Z,4648.00
2022-09-10T10:49:41.605Z,4808.00
2022-09-10T10:50:41.386Z,5148.00
2022-09-10T10:51:41.439Z,6052.00
2022-09-10T10:52:42.309Z,5676.00
2022-09-10T10:53:41.609Z,5448.00
2022-09-10T10:54:41.338Z,5480.00
2022-09-10T10:55:41.576Z,6744.00
2022-09-10T10:56:41.401Z,5968.00
2022-09-10T10:57:41.322Z,6208.00
2022-09-10T10:58:42.036Z,5104.00
2022-09-10T10:59:41.389Z,5192.00
2022-09-10T11:00:41.275Z,4472.00
2022-09-10T11:01:42.230Z,4852.00
2022-09-10T11:02:42.051Z,5348.00
2022-09-10T11:03:41.269Z,5384.00
2022-09-10T11:04:41.231Z,4320.00
2022-09-10T11:05:41.224Z,4696.00
2022-09-10T11:06:41.266Z,6000.00
2022-09-10T11:07:41.161Z,7204.00
2022-09-10T11:08:41.279Z,6732.00
2022-09-10T11:09:41.262Z,6904.00
2022-09-10T11:10:42.134Z,7012.00
2022-09-10T11:11:41.204Z,6864.00
2022-09-10T11:12:41.944Z,7012.00
2022-09-10T11:13:41.094Z,5508.00
2022-09-10T11:14:41.304Z,4752.00
2022-09-10T11:15:41.407Z,4560.00
2022-09-10T11:16:41.155Z,5104.00
2022-09-10T11:17:41.112Z,6032.00
2022-09-10T11:18:41.188Z,4348.00
2022-09-10T11:19:41.046Z,3992.00
2022-09-10T11:20:41.105Z,4544.00
2022-09-10T11:21:41.031Z,4168.00
2022-09-10T11:22:41.055Z,2528.00
2022-09-10T11:23:41.044Z,2800.00
2022-09-10T11:24:41.027Z,2628.00
2022-09-10T11:25:40.969Z,1632.00
2022-09-10T11:26:41.044Z,2904.00
2022-09-10T11:27:40.952Z,5284.00
2022-09-10T11:28:41.096Z,6500.00
2022-09-10T11:29:40.943Z,5712.00
2022-09-10T11:30:41.012Z,4760.00
2022-09-10T11:31:40.900Z,7020.00
2022-09-10T11:32:40.954Z,6720.00
2022-09-10T11:33:40.887Z,4320.00
2022-09-10T11:34:40.971Z,5120.00
2022-09-10T11:35:40.902Z,4924.00
2022-09-10T11:36:40.862Z,3940.00
2022-09-10T11:37:40.832Z,5052.00
2022-09-10T11:38:40.926Z,5504.00
2022-09-10T11:39:40.854Z,5024.00
2022-09-10T11:40:42.282Z,3864.00
2022-09-10T11:41:40.924Z,3576.00
2022-09-10T11:42:42.252Z,2956.00
2022-09-10T11:43:40.793Z,2468.00
2022-09-10T11:44:40.764Z,2912.00
2022-09-10T11:45:40.910Z,4624.00
2022-09-10T11:46:40.784Z,3908.00
2022-09-10T11:47:40.765Z,5352.00
2022-09-10T11:48:40.916Z,3708.00
2022-09-10T11:49:40.699Z,3536.00
2022-09-10T11:50:40.745Z,4816.00
2022-09-10T11:51:40.754Z,4744.00
2022-09-10T11:52:40.681Z,2664.00
2022-09-10T11:53:40.687Z,3808.00
2022-09-10T11:54:40.647Z,2844.00
2022-09-10T11:55:40.782Z,3420.00
2022-09-10T11:56:41.450Z,4328.00
2022-09-10T11:57:40.628Z,3476.00
2022-09-10T11:58:40.725Z,2696.00
2022-09-10T11:59:40.602Z,5288.00
2022-09-10T12:00:42.040Z,4472.00
2022-09-10T12:01:40.575Z,5868.00
2022-09-10T12:02:41.376Z,4132.00
2022-09-10T12:03:40.821Z,3832.00
2022-09-10T12:04:43.616Z,4812.00
2022-09-10T12:05:41.545Z,5268.00
2022-09-10T12:06:40.514Z,4600.00
2022-09-10T12:07:40.513Z,4700.00
2022-09-10T12:08:40.557Z,3332.00
2022-09-10T12:09:40.644Z,4160.00
2022-09-10T12:10:40.503Z,3952.00
2022-09-10T12:11:40.475Z,4192.00
2022-09-10T12:12:41.924Z,3200.00
2022-09-10T12:13:41.871Z,4548.00
2022-09-10T12:14:40.446Z,2632.00
2022-09-10T12:15:40.575Z,4220.00
2022-09-10T12:16:40.458Z,2404.00
2022-09-10T12:17:40.409Z,2508.00
2022-09-10T12:18:42.766Z,3952.00
2022-09-10T12:19:40.519Z,3440.00
2022-09-10T12:20:40.362Z,3884.00
2022-09-10T12:21:40.455Z,3724.00
2022-09-10T12:22:40.349Z,2984.00
2022-09-10T12:23:40.391Z,2724.00
2022-09-10T12:24:41.128Z,2732.00
2022-09-10T12:25:40.360Z,2548.00
2022-09-10T12:26:40.303Z,1828.00
2022-09-10T12:27:40.368Z,2184.00
2022-09-10T12:28:40.331Z,2444.00
2022-09-10T12:29:40.427Z,2112.00
2022-09-10T12:30:40.294Z,2360.00
2022-09-10T12:31:40.306Z,1868.00
2022-09-10T12:32:40.302Z,2204.00
2022-09-10T12:33:40.320Z,2672.00
2022-09-10T12:34:40.254Z,2068.00
2022-09-10T12:35:40.232Z,2044.00
2022-09-10T12:36:40.197Z,2184.00
2022-09-10T12:37:40.172Z,1848.00
2022-09-10T12:38:40.171Z,3256.00
2022-09-10T12:39:40.190Z,3996.00
2022-09-10T12:40:40.561Z,3568.00